createdAt,value
2022-09-05T00:01:39.947Z,99.90
2022-09-05T00:04:31.300Z,99.90
2022-09-05T00:07:58.162Z,99.90
2022-09-05T00:10:36.174Z,99.90
2022-09-05T00:13:09.890Z,99.90
2022-09-05T00:16:08.612Z,99.90
2022-09-05T00:22:54.233Z,99.90
2022-09-05T00:24:35.364Z,99.90
2022-09-05T00:24:54.733Z,99.90
2022-09-05T00:27:37.267Z,99.90
2022-09-05T00:31:07.466Z,99.90
2022-09-05T00:33:56.794Z,99.90
2022-09-05T00:36:54.706Z,99.90
2022-09-05T00:39:34.448Z,99.90
2022-09-05T00:42:07.837Z,99.90
2022-09-05T00:44:38.319Z,99.90
2022-09-05T00:47:35.933Z,99.90
2022-09-05T00:50:11.157Z,99.90
2022-09-05T00:53:06.694Z,99.90
2022-09-05T00:55:46.595Z,99.90
2022-09-05T00:58:42.430Z,99.90
2022-09-05T01:01:37.383Z,99.90
2022-09-05T01:04:47.237Z,99.90
2022-09-05T01:07:38.014Z,99.90
2022-09-05T01:10:26.303Z,99.90
2022-09-05T01:13:21.505Z,99.90
2022-09-05T01:16:16.018Z,99.90
2022-09-05T01:18:59.194Z,99.90
2022-09-05T01:21:39.026Z,99.90
2022-09-05T01:24:27.977Z,99.90
2022-09-05T01:27:26.631Z,99.90
2022-09-05T01:30:23.061Z,99.90
2022-09-05T01:33:23.037Z,99.90
2022-09-05T01:36:07.691Z,99.90
2022-09-05T01:40:10.396Z,99.90
2022-09-05T01:42:08.262Z,99.90
2022-09-05T01:45:03.380Z,99.90
2022-09-05T01:48:01.330Z,99.90
2022-09-05T01:50:56.340Z,99.90
2022-09-05T01:53:35.335Z,99.90
2022-09-05T01:56:17.103Z,99.90
2022-09-05T01:59:10.990Z,99.90
2022-09-05T02:02:13.128Z,99.90
2022-09-05T02:04:43.628Z,99.90
2022-09-05T02:07:48.848Z,99.90
2022-09-05T02:10:37.577Z,99.90
2022-09-05T02:13:35.131Z,99.90
2022-09-05T02:16:19.962Z,99.90
2022-09-05T02:19:12.057Z,99.90
2022-09-05T02:21:56.019Z,99.90
2022-09-05T02:24:35.347Z,99.90
2022-09-05T02:27:40.241Z,99.90
2022-09-05T02:30:18.542Z,99.90
2022-09-05T02:32:55.428Z,99.90
2022-09-05T02:35:29.897Z,99.90
2022-09-05T02:42:49.856Z,99.90
2022-09-05T02:45:07.951Z,99.90
2022-09-05T02:45:10.845Z,99.90
2022-09-05T02:47:12.847Z,99.90
2022-09-05T02:52:27.593Z,99.90
2022-09-05T02:57:26.037Z,99.90
2022-09-05T02:57:33.494Z,99.90
2022-09-05T02:59:36.857Z,99.90
2022-09-05T03:02:26.065Z,99.90
2022-09-05T03:05:04.554Z,99.90
2022-09-05T03:08:13.231Z,99.90
2022-09-05T03:11:38.795Z,99.90
2022-09-05T03:14:23.170Z,99.90
2022-09-05T03:17:04.864Z,99.90
2022-09-05T03:19:46.249Z,99.90
2022-09-05T03:22:37.138Z,99.90
2022-09-05T03:25:40.884Z,99.90
2022-09-05T03:28:41.317Z,99.90
2022-09-05T03:31:14.848Z,99.90
2022-09-05T03:33:55.043Z,99.90
2022-09-05T03:36:40.461Z,99.90
2022-09-05T03:39:25.467Z,99.90
2022-09-05T03:42:15.914Z,99.90
2022-09-05T03:44:48.521Z,99.90
2022-09-05T03:47:42.883Z,99.90
2022-09-05T03:57:01.777Z,99.90
2022-09-05T03:57:06.386Z,99.90
2022-09-05T03:57:15.137Z,99.90
2022-09-05T03:59:43.499Z,99.90
2022-09-05T04:03:47.159Z,99.90
2022-09-05T04:08:25.939Z,99.90
2022-09-05T04:08:50.369Z,99.90
2022-09-05T04:11:21.034Z,99.90
2022-09-05T04:14:05.590Z,99.90
2022-09-05T04:16:54.013Z,99.90
2022-09-05T04:20:00.756Z,99.90
2022-09-05T04:22:48.489Z,99.90
2022-09-05T04:26:10.985Z,99.90
2022-09-05T04:29:14.959Z,99.90
2022-09-05T04:31:45.633Z,99.90
2022-09-05T04:34:52.288Z,99.90
2022-09-05T04:37:48.226Z,99.90
2022-09-05T04:40:42.135Z,99.90
2022-09-05T04:43:20.226Z,99.90
2022-09-05T04:45:53.553Z,99.90
2022-09-05T04:48:27.817Z,99.90
2022-09-05T04:51:11.585Z,99.90
2022-09-05T04:54:01.060Z,99.90
2022-09-05T04:56:32.572Z,99.90
2022-09-05T05:01:31.135Z,99.90
2022-09-05T05:06:00.708Z,99.90
2022-09-05T05:06:16.666Z,99.90
2022-09-05T05:08:01.857Z,99.90
2022-09-05T05:13:59.672Z,99.90
2022-09-05T05:17:56.692Z,99.90
2022-09-05T05:18:12.193Z,99.90
2022-09-05T05:20:39.689Z,99.90
2022-09-05T05:22:51.525Z,99.90
2022-09-05T05:25:18.395Z,99.90
2022-09-05T05:27:54.402Z,99.90
2022-09-05T05:30:32.266Z,99.90
2022-09-05T05:33:02.853Z,99.90
2022-09-05T05:35:33.665Z,99.90
2022-09-05T05:38:17.562Z,99.90
2022-09-05T05:40:51.478Z,99.90
2022-09-05T05:43:28.118Z,99.90
2022-09-05T05:45:58.963Z,99.90
2022-09-05T05:48:40.933Z,99.90
2022-09-05T05:51:38.329Z,99.90
2022-09-05T05:54:26.409Z,99.90
2022-09-05T05:57:17.520Z,99.90
2022-09-05T06:00:03.051Z,99.90
2022-09-05T06:03:25.691Z,99.90
2022-09-05T06:06:07.789Z,99.90
2022-09-05T06:12:06.935Z,99.90
2022-09-05T06:15:05.738Z,99.90
2022-09-05T06:15:38.894Z,99.90
2022-09-05T06:18:30.427Z,99.90
2022-09-05T06:22:06.199Z,99.90
2022-09-05T06:24:34.910Z,99.90
2022-09-05T06:27:32.559Z,99.90
2022-09-05T06:30:19.022Z,99.90
2022-09-05T06:32:58.701Z,99.90
2022-09-05T06:35:28.889Z,99.90
2022-09-05T06:38:20.186Z,99.90
2022-09-05T06:41:25.292Z,99.90
2022-09-05T06:44:15.131Z,99.90
2022-09-05T06:47:05.779Z,99.90
2022-09-05T06:49:46.017Z,99.90
2022-09-05T06:52:38.223Z,99.90
2022-09-05T06:55:13.953Z,99.90
2022-09-05T06:58:00.815Z,99.90
2022-09-05T07:00:38.897Z,99.90
2022-09-05T07:03:22.778Z,99.90
2022-09-05T07:06:19.690Z,99.90
2022-09-05T07:09:15.909Z,99.90
2022-09-05T07:12:23.605Z,99.90
2022-09-05T07:15:08.607Z,99.90
2022-09-05T07:18:10.923Z,99.90
2022-09-05T07:21:16.458Z,97.40
2022-09-05T07:24:08.978Z,95.00
2022-09-05T07:26:51.774Z,92.60
2022-09-05T07:29:33.109Z,91.40
2022-09-05T07:32:02.586Z,87.90
2022-09-05T07:34:34.231Z,86.60
2022-09-05T07:37:19.108Z,87.00
2022-09-05T07:40:11.309Z,86.40
2022-09-05T07:43:10.164Z,89.60
2022-09-05T07:46:01.146Z,89.00
2022-09-05T07:48:34.948Z,85.40
2022-09-05T07:56:46.499Z,84.00
2022-09-05T07:57:06.275Z,83.00
2022-09-05T08:00:06.441Z,85.10
2022-09-05T08:02:33.431Z,86.50
2022-09-05T08:05:06.817Z,82.60
2022-09-05T08:07:47.925Z,81.50
2022-09-05T08:10:35.623Z,78.00
2022-09-05T08:13:27.480Z,77.90
2022-09-05T08:16:13.111Z,75.30
2022-09-05T08:18:46.023Z,72.70
2022-09-05T08:21:41.901Z,69.00
2022-09-05T08:24:13.165Z,64.50
2022-09-05T08:26:47.446Z,63.80
2022-09-05T08:29:30.995Z,61.90
2022-09-05T08:32:00.717Z,59.30
2022-09-05T08:34:44.959Z,57.70
2022-09-05T08:37:21.023Z,57.00
2022-09-05T08:40:09.650Z,56.90
2022-09-05T08:43:55.995Z,56.50
2022-09-05T08:46:39.568Z,55.80
2022-09-05T08:49:11.262Z,55.80
2022-09-05T08:51:53.851Z,54.50
2022-09-05T08:54:34.838Z,55.70
2022-09-05T08:57:12.131Z,54.40
2022-09-05T09:00:19.249Z,54.90
2022-09-05T09:02:54.998Z,54.90
2022-09-05T09:06:13.523Z,54.80
2022-09-05T09:09:09.255Z,54.70
2022-09-05T09:11:45.029Z,55.20
2022-09-05T09:14:32.616Z,57.20
2022-09-05T09:17:26.674Z,56.50
2022-09-05T09:20:33.422Z,59.80
2022-09-05T09:23:08.927Z,59.70
2022-09-05T09:26:15.840Z,58.10
2022-09-05T09:28:49.856Z,57.40
2022-09-05T09:31:42.896Z,59.70
2022-09-05T09:34:49.394Z,59.80
2022-09-05T09:37:50.576Z,60.20
2022-09-05T09:40:52.295Z,61.60
2022-09-05T09:43:57.459Z,66.90
2022-09-05T09:46:27.383Z,65.60
2022-09-05T09:49:25.994Z,64.10
2022-09-05T09:52:02.329Z,65.40
2022-09-05T09:54:53.802Z,67.90
2022-09-05T09:57:44.919Z,68.50
2022-09-05T10:00:23.915Z,63.60
2022-09-05T10:07:26.923Z,63.30
2022-09-05T10:10:34.810Z,65.70
2022-09-05T10:10:49.593Z,70.70
2022-09-05T10:12:38.775Z,75.70
2022-09-05T10:15:31.673Z,70.40
2022-09-05T10:18:24.485Z,70.40
2022-09-05T10:21:25.620Z,69.90
2022-09-05T10:24:13.962Z,68.70
2022-09-05T10:27:06.069Z,63.20
2022-09-05T10:29:43.717Z,67.10
2022-09-05T10:35:07.967Z,67.50
2022-09-05T10:35:28.970Z,64.30
2022-09-05T10:38:12.325Z,63.90
2022-09-05T10:40:46.350Z,62.80
2022-09-05T10:43:32.344Z,63.70
2022-09-05T10:46:06.466Z,63.50
2022-09-05T10:49:03.282Z,61.50
2022-09-05T10:51:38.702Z,60.00
2022-09-05T10:54:31.242Z,62.80
2022-09-05T10:57:31.846Z,63.10
2022-09-05T11:02:24.316Z,58.90
2022-09-05T11:03:00.925Z,60.00
2022-09-05T11:05:38.556Z,61.60
2022-09-05T11:08:11.057Z,58.00
2022-09-05T11:10:57.933Z,57.70
2022-09-05T11:13:49.902Z,57.80
2022-09-05T11:16:25.855Z,58.30
2022-09-05T11:19:00.098Z,59.30
2022-09-05T11:21:38.435Z,61.00
2022-09-05T11:24:46.807Z,59.10
2022-09-05T11:27:46.794Z,63.00
2022-09-05T11:30:30.493Z,61.60
2022-09-05T11:39:47.755Z,60.10
2022-09-05T11:39:48.261Z,58.70
2022-09-05T11:40:06.455Z,60.70
2022-09-05T11:42:17.831Z,58.80
2022-09-05T11:45:10.112Z,59.10
2022-09-05T11:48:03.090Z,61.00
2022-09-05T11:50:57.301Z,61.20
2022-09-05T11:53:50.819Z,62.20
2022-09-05T11:56:44.065Z,62.60
2022-09-05T11:59:45.020Z,60.80
2022-09-05T12:02:37.639Z,57.70
2022-09-05T12:05:48.478Z,58.90
2022-09-05T12:08:29.938Z,57.70
2022-09-05T12:11:10.587Z,56.50
2022-09-05T12:13:47.019Z,58.40
2022-09-05T12:16:31.446Z,56.20
2022-09-05T12:19:29.836Z,57.80
2022-09-05T12:22:16.500Z,58.40
2022-09-05T12:25:25.711Z,57.90
2022-09-05T12:27:47.418Z,56.70
2022-09-05T12:30:36.416Z,58.00
2022-09-05T12:36:09.703Z,55.50
2022-09-05T12:40:46.172Z,56.80
2022-09-05T12:40:58.484Z,58.30
2022-09-05T12:42:56.051Z,53.50
2022-09-05T12:45:34.471Z,54.10
2022-09-05T12:48:39.110Z,57.60
2022-09-05T12:51:45.303Z,55.70
2022-09-05T12:54:24.823Z,53.90
2022-09-05T12:59:52.517Z,57.10
2022-09-05T13:02:57.343Z,58.40
2022-09-05T13:03:27.858Z,57.30
2022-09-05T13:06:25.127Z,56.70
2022-09-05T13:08:59.928Z,55.90
2022-09-05T13:14:47.605Z,53.60
2022-09-05T13:14:52.746Z,52.40
2022-09-05T13:17:14.189Z,53.40
2022-09-05T13:19:51.249Z,55.30
2022-09-05T13:22:23.453Z,54.00
2022-09-05T13:25:07.471Z,53.70
2022-09-05T13:27:42.295Z,54.80
2022-09-05T13:32:58.836Z,53.70
2022-09-05T13:38:03.626Z,54.80
2022-09-05T13:38:19.071Z,53.80
2022-09-05T13:39:07.755Z,54.60
2022-09-05T13:41:48.740Z,52.80
2022-09-05T13:44:27.571Z,55.10
2022-09-05T13:47:28.777Z,55.70
2022-09-05T13:50:05.665Z,54.60
2022-09-05T13:52:34.522Z,54.30
2022-09-05T13:55:16.197Z,53.80
2022-09-05T13:57:48.045Z,54.10
2022-09-05T14:00:42.219Z,53.90
2022-09-05T14:03:38.987Z,54.00
2022-09-05T14:06:46.670Z,54.40
2022-09-05T14:09:39.775Z,53.30
2022-09-05T14:12:15.192Z,52.80
2022-09-05T14:15:14.638Z,53.60
2022-09-05T14:17:59.626Z,53.20
2022-09-05T14:20:50.204Z,54.20
2022-09-05T14:23:18.693Z,54.40
2022-09-05T14:25:53.359Z,52.80
2022-09-05T14:28:30.976Z,54.90
2022-09-05T14:36:14.989Z,56.10
2022-09-05T14:38:00.571Z,55.10
2022-09-05T14:38:09.314Z,52.60
2022-09-05T14:41:11.516Z,55.00
2022-09-05T14:44:05.584Z,53.00
2022-09-05T14:46:50.734Z,52.20
2022-09-05T14:49:54.378Z,52.70
2022-09-05T14:52:26.743Z,54.30
2022-09-05T15:02:55.114Z,54.60
2022-09-05T15:02:58.133Z,52.90
2022-09-05T15:06:37.651Z,53.20
2022-09-05T15:12:14.943Z,54.30
2022-09-05T15:12:27.749Z,53.30
2022-09-05T15:15:00.486Z,52.00
2022-09-05T15:17:28.272Z,51.70
2022-09-05T15:20:06.399Z,52.20
2022-09-05T15:22:37.092Z,51.80
2022-09-05T15:25:20.131Z,51.60
2022-09-05T15:27:49.528Z,52.70
2022-09-05T15:30:35.398Z,55.50
2022-09-05T15:33:25.320Z,55.50
2022-09-05T15:35:52.223Z,54.80
2022-09-05T15:38:55.475Z,54.00
2022-09-05T15:41:26.871Z,53.00
2022-09-05T15:43:59.657Z,52.30
2022-09-05T15:46:39.242Z,52.90
2022-09-05T15:49:22.195Z,53.40
2022-09-05T15:51:56.896Z,52.90
2022-09-05T15:54:37.902Z,53.90
2022-09-05T15:57:09.046Z,53.80
2022-09-05T15:59:49.639Z,54.70
2022-09-05T16:02:23.310Z,55.10
2022-09-05T16:10:26.829Z,54.00
2022-09-05T16:10:48.603Z,54.30
2022-09-05T16:11:06.781Z,51.50
2022-09-05T16:13:51.921Z,52.50
2022-09-05T16:20:15.044Z,52.60
2022-09-05T16:23:13.956Z,51.60
2022-09-05T16:23:32.505Z,51.40
2022-09-05T16:25:00.228Z,52.80
2022-09-05T16:28:11.747Z,52.30
2022-09-05T16:30:39.832Z,53.90
2022-09-05T16:33:12.579Z,52.60
2022-09-05T16:35:47.783Z,51.00
2022-09-05T16:38:49.578Z,51.30
2022-09-05T16:41:27.546Z,53.80
2022-09-05T16:44:04.155Z,54.00
2022-09-05T16:47:00.766Z,54.30
2022-09-05T16:49:42.359Z,54.20
2022-09-05T16:52:17.275Z,53.90
2022-09-05T16:55:08.501Z,55.10
2022-09-05T16:57:37.730Z,56.00
2022-09-05T17:00:07.909Z,57.30
2022-09-05T17:03:11.528Z,61.90
2022-09-05T17:05:46.161Z,66.10
2022-09-05T17:08:16.715Z,67.00
2022-09-05T17:10:50.692Z,69.70
2022-09-05T17:13:42.358Z,68.90
2022-09-05T17:16:14.005Z,71.90
2022-09-05T17:18:42.312Z,74.20
2022-09-05T17:21:12.797Z,72.80
2022-09-05T17:29:18.154Z,72.00
2022-09-05T17:29:32.182Z,73.20
2022-09-05T17:32:40.102Z,78.20
2022-09-05T17:35:17.483Z,78.60
2022-09-05T17:38:11.216Z,78.90
2022-09-05T17:41:12.540Z,81.70
2022-09-05T17:43:40.823Z,81.40
2022-09-05T17:46:26.285Z,80.50
2022-09-05T17:49:18.648Z,83.90
2022-09-05T17:51:50.855Z,85.30
2022-09-05T17:54:37.642Z,85.00
2022-09-05T17:57:28.965Z,87.40
2022-09-05T18:00:00.155Z,87.50
2022-09-05T18:02:32.634Z,88.40
2022-09-05T18:05:01.248Z,86.90
2022-09-05T18:07:29.262Z,88.30
2022-09-05T18:10:12.081Z,90.80
2022-09-05T18:13:13.742Z,91.30
2022-09-05T18:15:32.490Z,91.30
2022-09-05T18:18:05.807Z,91.10
2022-09-05T18:21:12.206Z,90.00
2022-09-05T18:23:57.794Z,88.50
2022-09-05T18:26:26.510Z,90.10
2022-09-05T18:29:57.316Z,90.60
2022-09-05T18:32:11.894Z,91.00
2022-09-05T18:34:40.449Z,91.50
2022-09-05T18:37:35.525Z,91.60
2022-09-05T18:40:16.654Z,91.40
2022-09-05T18:43:10.464Z,92.90
2022-09-05T18:45:52.538Z,92.40
2022-09-05T18:48:43.166Z,92.90
2022-09-05T18:51:17.093Z,94.10
2022-09-05T18:53:47.414Z,94.50
2022-09-05T18:56:27.444Z,95.00
2022-09-05T18:59:11.546Z,95.30
2022-09-05T19:01:45.305Z,95.00
2022-09-05T19:04:38.932Z,94.30
2022-09-05T19:07:11.734Z,94.60
2022-09-05T19:09:56.720Z,95.40
2022-09-05T19:12:32.146Z,95.90
2022-09-05T19:15:26.050Z,96.30
2022-09-05T19:18:26.468Z,97.00
2022-09-05T19:21:12.021Z,96.90
2022-09-05T19:23:50.810Z,97.00
2022-09-05T19:26:18.334Z,98.00
2022-09-05T19:36:48.647Z,98.40
2022-09-05T19:36:56.963Z,98.90
2022-09-05T19:37:22.691Z,99.90
2022-09-05T19:37:25.452Z,99.60
2022-09-05T19:45:54.318Z,99.90
2022-09-05T19:47:37.065Z,99.90
2022-09-05T19:47:37.945Z,99.90
2022-09-05T19:48:25.745Z,99.90
2022-09-05T19:50:57.635Z,99.90
2022-09-05T19:53:24.951Z,99.90
2022-09-05T19:55:53.626Z,99.90
2022-09-05T19:58:22.951Z,99.90
2022-09-05T20:01:02.713Z,99.90
2022-09-05T20:03:38.871Z,99.90
2022-09-05T20:06:28.924Z,99.90
2022-09-05T20:09:09.213Z,99.90
2022-09-05T20:11:45.223Z,99.90
2022-09-05T20:14:20.637Z,99.90
2022-09-05T20:16:49.691Z,99.90
2022-09-05T20:19:34.510Z,99.90
2022-09-05T20:22:46.754Z,99.90
2022-09-05T20:25:04.042Z,99.90
2022-09-05T20:27:30.864Z,99.90
2022-09-05T20:30:04.735Z,99.90
2022-09-05T20:32:41.055Z,99.90
2022-09-05T20:40:22.646Z,99.90
2022-09-05T20:43:18.672Z,99.90
2022-09-05T20:43:18.922Z,99.90
2022-09-05T20:44:17.205Z,99.90
2022-09-05T20:50:44.427Z,99.90
2022-09-05T20:54:16.971Z,99.90
2022-09-05T20:54:19.756Z,99.90
2022-09-05T20:55:41.514Z,99.90
2022-09-05T20:58:11.842Z,99.90
2022-09-05T21:01:21.555Z,99.90
2022-09-05T21:03:36.470Z,99.90
2022-09-05T21:06:22.510Z,99.90
2022-09-05T21:08:51.211Z,99.90
2022-09-05T21:11:28.114Z,99.90
2022-09-05T21:13:59.276Z,99.90
2022-09-05T21:16:45.114Z,99.90
2022-09-05T21:19:33.272Z,99.90
2022-09-05T21:22:16.524Z,99.90
2022-09-05T21:24:44.162Z,99.90
2022-09-05T21:27:22.917Z,99.90
2022-09-05T21:29:57.329Z,99.90
2022-09-05T21:32:27.956Z,99.90
2022-09-05T21:35:33.771Z,99.90
2022-09-05T21:37:53.550Z,99.90
2022-09-05T21:40:21.282Z,99.90
2022-09-05T21:43:40.887Z,99.90
2022-09-05T21:47:47.284Z,99.90
2022-09-05T21:48:24.315Z,99.90
2022-09-05T21:50:52.426Z,99.90
2022-09-05T21:57:16.863Z,99.90
2022-09-05T21:59:26.231Z,99.90
2022-09-05T21:59:28.370Z,99.90
2022-09-05T22:01:54.633Z,99.90
2022-09-05T22:04:21.996Z,99.90
2022-09-05T22:06:49.611Z,99.90
2022-09-05T22:09:23.567Z,99.90
2022-09-05T22:11:51.217Z,99.90
2022-09-05T22:14:19.841Z,99.90
2022-09-05T22:16:50.078Z,99.90
2022-09-05T22:19:22.933Z,99.90
2022-09-05T22:21:53.196Z,99.90
2022-09-05T22:24:21.202Z,99.90
2022-09-05T22:27:12.335Z,99.90
2022-09-05T22:29:40.082Z,99.90
2022-09-05T22:32:07.366Z,99.90
2022-09-05T22:34:34.179Z,99.90
2022-09-05T22:37:00.835Z,99.90
2022-09-05T22:39:36.989Z,99.90
2022-09-05T22:42:10.279Z,99.90
2022-09-05T22:44:39.110Z,99.90
2022-09-05T22:47:10.091Z,99.90
2022-09-05T22:49:37.377Z,99.90
2022-09-05T22:52:05.811Z,99.90
2022-09-05T22:54:33.068Z,99.90
2022-09-05T22:56:59.744Z,99.90
2022-09-05T22:59:26.475Z,99.90
2022-09-05T23:01:53.174Z,99.90
2022-09-05T23:04:19.985Z,99.90
2022-09-05T23:06:46.707Z,99.90
2022-09-05T23:09:13.388Z,99.90
2022-09-05T23:11:41.071Z,99.90
2022-09-05T23:14:07.754Z,99.90
2022-09-05T23:16:34.659Z,99.90
2022-09-05T23:19:01.476Z,99.90
2022-09-05T23:21:28.178Z,99.90
2022-09-05T23:23:54.859Z,99.90
2022-09-05T23:26:22.306Z,99.90
2022-09-05T23:28:49.059Z,99.90
2022-09-05T23:31:16.028Z,99.90
2022-09-05T23:33:43.047Z,99.90
2022-09-05T23:36:13.490Z,99.90
2022-09-05T23:38:42.425Z,99.90
2022-09-05T23:41:11.931Z,99.90
2022-09-05T23:43:38.606Z,99.90
2022-09-05T23:46:05.517Z,99.90
2022-09-05T23:48:32.329Z,99.90
2022-09-05T23:51:05.865Z,99.90
2022-09-05T23:53:32.646Z,99.90
2022-09-05T23:56:00.861Z,99.90
2022-09-05T23:58:29.085Z,99.90
